METAR stanice u blizini

 

LYBE - Beograd / Surčin, Srbija
Ažurirano: 28/09/2021 18:30
Mostly Cloudy
Mostly Cloudy
 Pravac vetra ZJZ
Vetar: ZJZ 11 km/h
Temperatura: 19°C
Tačka rose: 15°C
Vlažnost: 78%
Pritisak: 1019 hPa
Oblaci: Mostly Cloudy
Vidljivost: 10 km
Cloud details: Mostly Cloudy 1219 m
2021/09/28 16:30 LYBE 281630Z 25006KT 210V300 9999 BKN040 19/15 Q1019 NOSIG
LYBT - Beograd / Batajnica, Srbija
Ažurirano: 28/09/2021 18:30
Mostly Cloudy
Mostly Cloudy
 Pravac vetra JZ
Vetar: JZ 7 km/h
Temperatura: 19°C
Tačka rose: 17°C
Vlažnost: 88%
Pritisak: 1019 hPa
Oblaci: Mostly Cloudy
Vidljivost: 10 km
Cloud details: Mostly Cloudy 762 m
2021/09/28 16:30 LYBT 281630Z 23004KT 9999 BKN025 19/17 Q1019 NOSIG
LYVR - Vršac, Srbija
Ažurirano: 28/09/2021 18:30
Oblačno
Oblačno
 Pravac vetra JI
Vetar: JI 9 km/h
Temperatura: 19°C
Tačka rose: 16°C
Vlažnost: 83%
Pritisak: 1019 hPa
Oblaci: Oblačno
Vidljivost: 10 km
Cloud details: Few Clouds 823 m
Partly Cloudy 1158 m
Oblačno 1859 m
2021/09/28 16:30 LYVR 281630Z AUTO 14005KT 100V170 9999 FEW027/// SCT038/// OVC061/// 19/16 Q1019
 
LYKV - Lađevci, Srbija
Ažurirano: 28/09/2021 18:30
Mostly Cloudy
Mostly Cloudy
 Pravac vetra varies
Vetar: varies 2 km/h
Temperatura: 20°C
Tačka rose: 16°C
Vlažnost: 78%
Pritisak: 1019 hPa
Oblaci: Mostly Cloudy
Vidljivost: 10 km
Cloud details: Mostly Cloudy 1128 m
2021/09/28 16:30 LYKV 281630Z VRB01KT 9999 BKN037 20/16 Q1019 NOSIG
LYNI - Niš, Srbija
Ažurirano: 28/09/2021 18:30
Few Clouds
Few Clouds
 Pravac vetra SSZ
Vetar: SSZ 11 km/h
Temperatura: 18°C
Tačka rose: 14°C
Vlažnost: 78%
Pritisak: 1019 hPa
Oblaci: Few Clouds
Vidljivost: 10 km
Cloud details: Few Clouds 518 m
2021/09/28 16:30 LYNI 281630Z 33006KT 210V360 9999 FEW017 18/14 Q1019 NOSIG
BKPR - Priština, Srbija
Ažurirano: 28/09/2021 18:30
Slaba kiša, Pretežno oblačno
Slaba kiša, Pretežno oblačno
 Pravac vetra varies
Vetar: varies 6 km/h
Temperatura: 18°C
Tačka rose: 15°C
Vlažnost: 83%
Pritisak: 1020 hPa
Pregled: Light Rain
Oblaci: Mostly Cloudy
Vidljivost: 10 km
Cloud details: Partly Cloudy 1067 m
Mostly Cloudy 2438 m
2021/09/28 16:30 BKPR 281630Z VRB03KT 9999 -RA SCT035 BKN080 18/15 Q1020 NOSIG
 
LHPP - Pecs / Pogany, Hungary
Ažurirano: 28/09/2021 18:15
Vedro
Vedro
 Pravac vetra ZSZ
Vetar: ZSZ 6 km/h
Temperatura: 21°C
Tačka rose: 15°C
Vlažnost: 69%
Pritisak: 1019 hPa
Pregled: Vedro
Vidljivost: greater than 10 km
2021/09/28 16:15 LHPP 281615Z AUTO 29003KT CAVOK 21/15 Q1019
LHUD - Szeged, Hungary
Ažurirano: 04/07/2019 01:45
NOT Current
Vedro
Vedro
 Pravac vetra S
Vetar: S 7 km/h
Temperatura: 18°C
Tačka rose: 13°C
Vlažnost: 73%
Pritisak: 1019 hPa
Pregled: Vedro
Vidljivost: greater than 10 km
2019/07/03 23:45 LHUD 032345Z 35004KT CAVOK 18/13 Q1019
LRTR - Timisoara, Romania
Ažurirano: 28/09/2021 18:30
Mist, Oblačno
Mist, Oblačno
 Pravac vetra J
Vetar: J 9 km/h
Temperatura: 17°C
Tačka rose: 17°C
Vlažnost: 100%
Pritisak: 1019 hPa
Pregled: Mist
Oblaci: Oblačno
Vidljivost: 4 km
Cloud details: Oblačno 91 m
2021/09/28 16:30 LRTR 281630Z 18005KT 4000 BR OVC003 17/17 Q1019
 
LRCV - Craiova, Romania
Ažurirano: 28/09/2021 18:30
Partly Cloudy
Partly Cloudy
 Pravac vetra I
Vetar: I 17 km/h
Temperatura: 17°C
Tačka rose: 10°C
Vlažnost: 64%
Pritisak: 1020 hPa
Oblaci: Partly Cloudy
Vidljivost: 10 km
Cloud details: Partly Cloudy 1067 m
2021/09/28 16:30 LRCV 281630Z 08009KT 9999 SCT035 17/10 Q1020
LBSF - Sofia, Bulgaria
Ažurirano: 28/09/2021 18:30
Oblačno
Oblačno
 Pravac vetra IJI
Vetar: IJI 11 km/h
Temperatura: 15°C
Tačka rose: 13°C
Vlažnost: 88%
Pritisak: 1020 hPa
Oblaci: Oblačno
Vidljivost: 8 km
Cloud details: Oblačno 1036 m
2021/09/28 16:30 LBSF 281630Z 12006KT 8000 OVC034 15/13 Q1020 NOSIG
LWSK - Skoplje, Makedonija
Ažurirano: 28/09/2021 18:30
Mostly Cloudy
Mostly Cloudy
 Pravac vetra SI
Vetar: SI 9 km/h
Temperatura: 18°C
Tačka rose: 16°C
Vlažnost: 88%
Pritisak: 1019 hPa
Oblaci: Mostly Cloudy
Vidljivost: 10 km
Cloud details: Few Clouds 701 m
Mostly Cloudy 2134 m
2021/09/28 16:30 LWSK 281630Z 04005KT 9999 FEW023 BKN070 18/16 Q1019 NOSIG
 
LYPG - Podgorica, Crna Gora
Ažurirano: 28/09/2021 18:00
Partly Cloudy
Partly Cloudy
 Pravac vetra SSI
Vetar: SSI 9 km/h
Temperatura: 26°C
Tačka rose: 12°C
Vlažnost: 42%
Pritisak: 1015 hPa
Oblaci: Partly Cloudy
Vidljivost: 10 km
Cloud details: Few Clouds 1219 m
Partly Cloudy 1524 m
2021/09/28 16:00 LYPG 281600Z 02005KT 9999 FEW040 SCT050 26/12 Q1015 NOSIG
LQSA - Sarajevo, Bosna i Hercegovina
Ažurirano: 28/09/2021 18:00
Partly Cloudy
Partly Cloudy
 Pravac vetra SZ
Vetar: SZ 13 km/h
Temperatura: 19°C
Tačka rose: 14°C
Vlažnost: 73%
Pritisak: 1019 hPa
Oblaci: Partly Cloudy
Vidljivost: 10 km
Cloud details: Few Clouds 1219 m
Partly Cloudy 1524 m
2021/09/28 16:00 LQSA 281600Z 31007KT 9999 FEW040 SCT050 19/14 Q1019 NOSIG
LDOS - Osijek, Hrvatksa
Ažurirano: 28/09/2021 18:30
Few Clouds
Few Clouds
 Pravac vetra Z
Vetar: Z 17 km/h
Temperatura: 21°C
Tačka rose: 17°C
Vlažnost: 78%
Pritisak: 1019 hPa
Oblaci: Few Clouds
Vidljivost: 10 km
Cloud details: Few Clouds 1219 m
2021/09/28 16:30 LDOS 281630Z 27009KT 9999 FEW040 21/17 Q1019